createdAt,value
2019-01-21T00:00:56.425Z,101584.88
2019-01-21T00:03:26.127Z,101591.66
2019-01-21T00:05:55.581Z,101586.65
2019-01-21T00:08:24.909Z,101584.41
2019-01-21T00:10:54.215Z,101582.72
2019-01-21T00:13:23.544Z,101583.62
2019-01-21T00:15:53.004Z,101589.94
2019-01-21T00:18:22.970Z,101590.45
2019-01-21T00:20:52.280Z,101588.65
2019-01-21T00:23:21.618Z,101591.16
2019-01-21T00:25:50.987Z,101582.23
2019-01-21T00:28:20.322Z,101586.87
2019-01-21T00:30:49.621Z,101596.81
2019-01-21T00:33:18.950Z,101587.20
2019-01-21T00:35:48.439Z,101595.02
2019-01-21T00:38:17.751Z,101602.00
2019-01-21T00:40:47.064Z,101600.88
2019-01-21T00:43:16.392Z,101586.18
2019-01-21T00:45:45.723Z,101591.41
2019-01-21T00:48:15.039Z,101590.73
2019-01-21T00:50:44.418Z,101594.31
2019-01-21T00:53:13.719Z,101593.13
2019-01-21T00:55:43.048Z,101592.71
2019-01-21T00:58:12.342Z,101594.67
2019-01-21T01:00:41.666Z,101586.66
2019-01-21T01:03:11.127Z,101580.62
2019-01-21T01:05:40.443Z,101583.73
2019-01-21T01:08:10.229Z,101589.11
2019-01-21T01:10:39.565Z,101596.91
2019-01-21T01:13:08.922Z,101602.48
2019-01-21T01:15:38.532Z,101601.30
2019-01-21T01:18:07.942Z,101604.34
2019-01-21T01:20:37.445Z,101601.66
2019-01-21T01:23:06.755Z,101610.98
2019-01-21T01:25:36.073Z,101610.63
2019-01-21T01:28:05.675Z,101605.05
2019-01-21T01:30:35.092Z,101609.70
2019-01-21T01:33:04.467Z,101611.88
2019-01-21T01:35:33.872Z,101609.76
2019-01-21T01:38:03.309Z,101607.63
2019-01-21T01:40:32.802Z,101611.34
2019-01-21T01:43:02.306Z,101614.40
2019-01-21T01:45:31.751Z,101621.37
2019-01-21T01:48:01.818Z,101624.73
2019-01-21T01:50:31.949Z,101625.66
2019-01-21T01:53:01.821Z,101629.95
2019-01-21T01:55:31.946Z,101631.25
2019-01-21T01:58:02.490Z,101629.95
2019-01-21T02:00:32.049Z,101624.37
2019-01-21T02:03:01.350Z,101627.00
2019-01-21T02:05:30.753Z,101630.43
2019-01-21T02:08:00.530Z,101636.63
2019-01-21T02:10:30.645Z,101633.99
2019-01-21T02:13:00.246Z,101629.65
2019-01-21T02:15:29.586Z,101627.12
2019-01-21T02:17:58.969Z,101630.94
2019-01-21T02:20:28.538Z,101633.59
2019-01-21T02:23:00.584Z,101624.48
2019-01-21T02:25:35.621Z,101626.97
2019-01-21T02:28:16.700Z,101629.09
2019-01-21T02:30:51.883Z,101630.23
2019-01-21T02:33:48.473Z,101623.61
2019-01-21T02:36:37.012Z,101636.38
2019-01-21T02:39:21.516Z,101632.55
2019-01-21T02:41:51.399Z,101633.52
2019-01-21T02:44:26.702Z,101628.81
2019-01-21T02:47:01.924Z,101630.11
2019-01-21T02:49:37.064Z,101637.81
2019-01-21T02:52:25.608Z,101628.73
2019-01-21T02:55:07.010Z,101631.86
2019-01-21T02:57:45.581Z,101628.41
2019-01-21T03:00:20.961Z,101640.30
2019-01-21T03:02:53.306Z,101638.95
2019-01-21T03:05:40.597Z,101635.73
2019-01-21T03:08:29.495Z,101641.67
2019-01-21T03:11:19.905Z,101646.52
2019-01-21T03:13:54.991Z,101650.80
2019-01-21T03:16:43.724Z,101648.13
2019-01-21T03:19:16.157Z,101651.53
2019-01-21T03:22:00.500Z,101650.63
2019-01-21T03:25:04.689Z,101645.63
2019-01-21T03:27:49.173Z,101643.19
2019-01-21T03:30:47.256Z,101647.47
2019-01-21T03:33:36.008Z,101654.41
2019-01-21T03:36:08.555Z,101658.16
2019-01-21T03:38:55.811Z,101656.33
2019-01-21T03:41:34.062Z,101651.03
2019-01-21T03:44:06.444Z,101654.20
2019-01-21T03:46:44.409Z,101657.75
2019-01-21T03:49:34.690Z,101663.78
2019-01-21T03:52:15.999Z,101660.78
2019-01-21T03:54:47.984Z,101665.45
2019-01-21T03:57:20.579Z,101661.70
2019-01-21T03:59:53.189Z,101662.87
2019-01-21T04:02:31.301Z,101667.56
2019-01-21T04:05:12.454Z,101667.20
2019-01-21T04:07:53.585Z,101666.05
2019-01-21T04:10:49.034Z,101662.95
2019-01-21T04:13:40.773Z,101661.70
2019-01-21T04:16:16.045Z,101661.80
2019-01-21T04:18:48.411Z,101661.91
2019-01-21T04:21:24.227Z,101669.16
2019-01-21T04:24:19.426Z,101663.93
2019-01-21T04:26:57.417Z,101657.63
2019-01-21T04:29:44.669Z,101652.59
2019-01-21T04:32:41.201Z,101656.00
2019-01-21T04:35:19.613Z,101649.95
2019-01-21T04:38:11.697Z,101655.01
2019-01-21T04:40:50.098Z,101658.10
2019-01-21T04:43:31.422Z,101654.63
2019-01-21T04:46:06.469Z,101655.49
2019-01-21T04:48:41.806Z,101652.84
2019-01-21T04:51:32.235Z,101652.78
2019-01-21T04:54:29.712Z,101655.14
2019-01-21T04:57:04.933Z,101651.69
2019-01-21T04:59:46.382Z,101651.66
2019-01-21T05:02:34.136Z,101644.69
2019-01-21T05:05:24.790Z,101640.02
2019-01-21T05:08:30.551Z,101637.89
2019-01-21T05:11:06.148Z,101637.09
2019-01-21T05:13:41.799Z,101643.53
2019-01-21T05:16:20.167Z,101647.43
2019-01-21T05:19:01.193Z,101648.80
2019-01-21T05:21:54.959Z,101657.42
2019-01-21T05:24:36.174Z,101654.83
2019-01-21T05:27:24.978Z,101665.10
2019-01-21T05:30:13.750Z,101657.27
2019-01-21T05:32:54.786Z,101652.50
2019-01-21T05:35:27.198Z,101649.98
2019-01-21T05:38:08.701Z,101653.45
2019-01-21T05:40:43.858Z,101651.66
2019-01-21T05:43:37.375Z,101650.79
2019-01-21T05:46:17.967Z,101654.17
2019-01-21T05:49:08.601Z,101660.32
2019-01-21T05:51:59.144Z,101664.19
2019-01-21T05:54:52.542Z,101664.16
2019-01-21T05:58:00.149Z,101670.27
2019-01-21T06:00:44.479Z,101660.77
2019-01-21T06:03:31.746Z,101669.81
2019-01-21T06:06:16.147Z,101662.03
2019-01-21T06:09:08.105Z,101665.95
2019-01-21T06:11:52.250Z,101674.55
2019-01-21T06:14:44.101Z,101676.77
2019-01-21T06:17:31.568Z,101678.48
2019-01-21T06:20:13.055Z,101673.31
2019-01-21T06:22:54.613Z,101678.38
2019-01-21T06:25:36.638Z,101675.88
2019-01-21T06:28:21.409Z,101675.75
2019-01-21T06:31:30.175Z,101678.27
2019-01-21T06:34:22.155Z,101680.07
2019-01-21T06:37:11.957Z,101677.52
2019-01-21T06:39:49.984Z,101683.94
2019-01-21T06:42:25.155Z,101680.47
2019-01-21T06:45:09.087Z,101673.20
2019-01-21T06:47:41.469Z,101674.58
2019-01-21T06:50:22.503Z,101671.89
2019-01-21T06:53:06.962Z,101682.14
2019-01-21T06:55:42.171Z,101691.22
2019-01-21T06:58:23.426Z,101695.95
2019-01-21T07:01:25.859Z,101690.33
2019-01-21T07:04:20.598Z,101696.43
2019-01-21T07:07:01.227Z,101696.72
2019-01-21T07:09:54.729Z,101700.19
2019-01-21T07:12:29.865Z,101704.03
2019-01-21T07:15:19.137Z,101698.93
2019-01-21T07:18:09.815Z,101698.09
2019-01-21T07:20:48.339Z,101706.83
2019-01-21T07:23:35.322Z,101704.69
2019-01-21T07:26:13.241Z,101706.31
2019-01-21T07:29:02.143Z,101712.27
2019-01-21T07:31:37.047Z,101715.63
2019-01-21T07:34:15.490Z,101715.16
2019-01-21T07:37:08.736Z,101718.19
2019-01-21T07:39:41.131Z,101702.80
2019-01-21T07:42:13.488Z,101707.87
2019-01-21T07:44:57.579Z,101704.36
2019-01-21T07:47:57.056Z,101706.52
2019-01-21T07:50:29.432Z,101712.94
2019-01-21T07:53:25.736Z,101705.29
2019-01-21T07:56:09.900Z,101707.03
2019-01-21T07:59:13.566Z,101705.80
2019-01-21T08:02:00.728Z,101707.77
2019-01-21T08:04:52.696Z,101704.80
2019-01-21T08:07:34.000Z,101701.75
2019-01-21T08:10:21.390Z,101704.36
2019-01-21T08:13:12.269Z,101717.61
2019-01-21T08:15:50.146Z,101727.89
2019-01-21T08:18:39.326Z,101728.41
2019-01-21T08:21:23.625Z,101728.34
2019-01-21T08:24:14.203Z,101729.08
2019-01-21T08:26:46.588Z,101727.67
2019-01-21T08:29:21.778Z,101725.52
2019-01-21T08:31:59.816Z,101731.51
2019-01-21T08:34:56.305Z,101732.72
2019-01-21T08:37:40.176Z,101739.46
2019-01-21T08:40:21.333Z,101740.66
2019-01-21T08:43:09.969Z,101736.58
2019-01-21T08:45:58.952Z,101732.55
2019-01-21T08:48:31.282Z,101731.55
2019-01-21T08:51:14.967Z,101729.20
2019-01-21T08:53:53.026Z,101741.58
2019-01-21T08:56:37.363Z,101741.66
2019-01-21T08:59:12.535Z,101748.61
2019-01-21T09:01:50.923Z,101740.92
2019-01-21T09:04:28.854Z,101739.86
2019-01-21T09:07:16.313Z,101740.27
2019-01-21T09:09:54.441Z,101728.41
2019-01-21T09:12:29.429Z,101721.67
2019-01-21T09:15:04.435Z,101720.19
2019-01-21T09:17:48.837Z,101719.05
2019-01-21T09:20:27.047Z,101729.25
2019-01-21T09:23:16.188Z,101728.83
2019-01-21T09:26:15.622Z,101737.77
2019-01-21T09:28:53.933Z,101740.56
2019-01-21T09:31:32.118Z,101745.94
2019-01-21T09:34:09.811Z,101746.22
2019-01-21T09:36:51.512Z,101754.26
2019-01-21T09:39:32.768Z,101763.11
2019-01-21T09:42:23.941Z,101761.12
2019-01-21T09:45:14.414Z,101773.33
2019-01-21T09:47:42.588Z,101768.58
2019-01-21T09:50:12.176Z,101768.00
2019-01-21T09:52:43.317Z,101760.62
2019-01-21T09:55:14.929Z,101759.37
2019-01-21T09:57:46.097Z,101744.92
2019-01-21T10:00:18.792Z,101739.41
2019-01-21T10:02:49.118Z,101729.54
2019-01-21T10:05:18.699Z,101729.54
2019-01-21T10:08:05.766Z,101724.45
2019-01-21T10:10:49.767Z,101730.84
2019-01-21T10:13:36.900Z,101738.20
2019-01-21T10:16:21.280Z,101726.02
2019-01-21T10:19:08.702Z,101726.02
2019-01-21T10:21:49.863Z,101724.66
2019-01-21T10:24:25.229Z,101728.20
2019-01-21T10:26:57.563Z,101724.54
2019-01-21T10:29:50.371Z,101707.77
2019-01-21T10:32:31.871Z,101701.21
2019-01-21T10:35:25.749Z,101701.43
2019-01-21T10:38:19.049Z,101690.34
2019-01-21T10:40:51.379Z,101678.22
2019-01-21T10:43:26.340Z,101681.23
2019-01-21T10:46:04.681Z,101679.41
2019-01-21T10:48:52.183Z,101676.34
2019-01-21T10:51:36.714Z,101676.41
2019-01-21T10:54:09.043Z,101683.61
2019-01-21T10:56:58.036Z,101680.28
2019-01-21T10:59:47.808Z,101673.02
2019-01-21T11:02:39.648Z,101673.02
2019-01-21T11:05:11.997Z,101723.31
2019-01-21T11:08:05.300Z,101674.80
2019-01-21T11:10:40.697Z,101665.49
2019-01-21T11:13:46.477Z,101665.49
2019-01-21T11:16:27.775Z,101674.92
2019-01-21T11:19:16.736Z,101666.52
2019-01-21T11:21:49.094Z,101653.41
2019-01-21T11:24:46.904Z,101645.28
2019-01-21T11:27:28.105Z,101648.27
2019-01-21T11:30:03.152Z,101628.33
2019-01-21T11:32:41.071Z,101626.61
2019-01-21T11:35:19.051Z,101626.61
2019-01-21T11:38:00.202Z,101619.16
2019-01-21T11:40:38.647Z,101617.66
2019-01-21T11:43:23.136Z,101617.66
2019-01-21T11:46:04.565Z,101608.00
2019-01-21T11:48:48.260Z,101605.08
2019-01-21T11:51:35.432Z,101595.52
2019-01-21T11:54:35.021Z,101599.83
2019-01-21T11:57:31.923Z,101592.83
2019-01-21T12:00:13.341Z,101538.52
2019-01-21T12:02:57.541Z,101572.28
2019-01-21T12:05:36.044Z,101572.95
2019-01-21T12:08:26.153Z,101562.45
2019-01-21T12:11:10.549Z,101561.52
2019-01-21T12:13:51.963Z,101557.23
2019-01-21T12:16:43.450Z,101548.56
2019-01-21T12:19:30.642Z,101541.26
2019-01-21T12:22:08.742Z,101539.05
2019-01-21T12:24:38.784Z,101535.00
2019-01-21T12:27:11.122Z,101539.41
2019-01-21T12:30:07.475Z,101530.95
2019-01-21T12:32:51.670Z,101531.17
2019-01-21T12:35:36.152Z,101542.33
2019-01-21T12:38:11.281Z,101537.57
2019-01-21T12:40:46.350Z,101542.54
2019-01-21T12:43:24.186Z,101532.24
2019-01-21T12:46:09.169Z,101533.35
2019-01-21T12:48:47.536Z,101527.48
2019-01-21T12:51:36.191Z,101523.88
2019-01-21T12:54:17.491Z,101518.67
2019-01-21T12:56:58.436Z,101516.63
2019-01-21T12:59:47.197Z,101531.50
2019-01-21T13:02:31.369Z,101518.13
2019-01-21T13:05:06.583Z,101521.69
2019-01-21T13:07:39.132Z,101517.28
2019-01-21T13:10:17.237Z,101501.80
2019-01-21T13:12:52.774Z,101494.45
2019-01-21T13:15:36.831Z,101494.77
2019-01-21T13:18:21.204Z,101509.48
2019-01-21T13:20:59.221Z,101501.23
2019-01-21T13:23:31.566Z,101496.23
2019-01-21T13:26:06.746Z,101487.70
2019-01-21T13:28:44.619Z,101481.42
2019-01-21T13:31:35.234Z,101481.47
2019-01-21T13:34:19.386Z,101475.59
2019-01-21T13:37:15.946Z,101475.00
2019-01-21T13:40:04.748Z,101474.44
2019-01-21T13:42:48.968Z,101477.74
2019-01-21T13:45:29.983Z,101473.31
2019-01-21T13:48:08.552Z,101476.63
2019-01-21T13:50:46.475Z,101478.31
2019-01-21T13:53:42.820Z,101474.15
2019-01-21T13:56:30.179Z,101469.32
2019-01-21T13:59:14.587Z,101462.90
2019-01-21T14:01:52.523Z,101450.20
2019-01-21T14:04:44.680Z,101453.78
2019-01-21T14:07:42.732Z,101447.69
2019-01-21T14:10:45.538Z,101440.77
2019-01-21T14:13:35.632Z,101436.80
2019-01-21T14:16:25.917Z,101447.13
2019-01-21T14:18:58.243Z,101446.17
2019-01-21T14:21:51.765Z,101429.50
2019-01-21T14:24:26.986Z,101434.73
2019-01-21T14:27:07.914Z,101437.48
2019-01-21T14:29:43.152Z,101428.23
2019-01-21T14:32:30.447Z,101426.66
2019-01-21T14:35:19.335Z,101426.66
2019-01-21T14:38:12.807Z,101426.87
2019-01-21T14:40:57.213Z,101426.00
2019-01-21T14:43:32.654Z,101435.65
2019-01-21T14:46:13.600Z,101437.80
2019-01-21T14:49:04.615Z,101438.61
2019-01-21T14:52:02.424Z,101442.73
2019-01-21T14:54:34.776Z,101436.90
2019-01-21T14:57:15.993Z,101431.14
2019-01-21T14:59:51.840Z,101423.91
2019-01-21T15:02:33.500Z,101423.64
2019-01-21T15:05:20.256Z,101426.58
2019-01-21T15:07:52.655Z,101424.88
2019-01-21T15:10:28.190Z,101429.38
2019-01-21T15:13:20.161Z,101432.09
2019-01-21T15:15:56.035Z,101427.98
2019-01-21T15:18:37.233Z,101429.93
2019-01-21T15:21:35.121Z,101429.30
2019-01-21T15:24:22.054Z,101434.80
2019-01-21T15:27:06.449Z,101424.17
2019-01-21T15:29:44.508Z,101426.45
2019-01-21T15:32:16.880Z,101424.21
2019-01-21T15:34:55.078Z,101422.62
2019-01-21T15:38:00.487Z,101417.02
2019-01-21T15:40:35.706Z,101410.10
2019-01-21T15:43:10.754Z,101410.44
2019-01-21T15:45:51.749Z,101420.24
2019-01-21T15:48:35.095Z,101417.48
2019-01-21T15:51:13.056Z,101407.98
2019-01-21T15:53:51.582Z,101410.48
2019-01-21T15:56:39.230Z,101413.67
2019-01-21T15:59:17.455Z,101411.29
2019-01-21T16:01:55.883Z,101415.72
2019-01-21T16:04:36.984Z,101418.34
2019-01-21T16:07:12.379Z,101420.09
2019-01-21T16:09:56.037Z,101423.96
2019-01-21T16:12:48.203Z,101417.92
2019-01-21T16:15:37.196Z,101406.48
2019-01-21T16:18:17.961Z,101411.74
2019-01-21T16:21:12.600Z,101412.09
2019-01-21T16:23:43.700Z,101405.88
2019-01-21T16:26:13.067Z,101402.31
2019-01-21T16:28:54.203Z,101401.57
2019-01-21T16:31:26.551Z,101404.89
2019-01-21T16:34:20.213Z,101404.06
2019-01-21T16:37:19.918Z,101408.48
2019-01-21T16:40:07.103Z,101412.63
2019-01-21T16:42:36.775Z,101408.16
2019-01-21T16:45:07.669Z,101406.71
2019-01-21T16:47:36.996Z,101413.13
2019-01-21T16:50:08.601Z,101412.53
2019-01-21T16:52:38.566Z,101408.20
2019-01-21T16:55:09.399Z,101409.11
2019-01-21T16:57:38.881Z,101410.49
2019-01-21T17:00:11.702Z,101404.50
2019-01-21T17:02:42.212Z,101406.48
2019-01-21T17:05:13.727Z,101407.28
2019-01-21T17:07:44.509Z,101406.63
2019-01-21T17:10:15.037Z,101401.91
2019-01-21T17:12:44.360Z,101399.27
2019-01-21T17:15:14.634Z,101399.37
2019-01-21T17:17:44.390Z,101397.64
2019-01-21T17:20:17.245Z,101393.08
2019-01-21T17:22:46.628Z,101396.03
2019-01-21T17:25:16.489Z,101393.12
2019-01-21T17:27:47.099Z,101387.42
2019-01-21T17:30:18.461Z,101383.17
2019-01-21T17:32:55.521Z,101386.30
2019-01-21T17:35:43.284Z,101383.63
2019-01-21T17:38:12.587Z,101385.36
2019-01-21T17:40:41.977Z,101389.36
2019-01-21T17:43:11.279Z,101391.91
2019-01-21T17:45:42.240Z,101393.94
2019-01-21T17:48:11.532Z,101391.87
2019-01-21T17:50:40.922Z,101392.04
2019-01-21T17:53:10.284Z,101394.58
2019-01-21T17:55:39.646Z,101393.11
2019-01-21T17:58:08.935Z,101390.97
2019-01-21T18:00:38.261Z,101392.59
2019-01-21T18:03:07.601Z,101389.70
2019-01-21T18:05:36.950Z,101391.72
2019-01-21T18:08:06.918Z,101393.17
2019-01-21T18:10:36.244Z,101392.48
2019-01-21T18:13:05.734Z,101385.17
2019-01-21T18:15:35.071Z,101384.77
2019-01-21T18:18:06.381Z,101386.77
2019-01-21T18:20:35.683Z,101389.06
2019-01-21T18:23:06.014Z,101387.20
2019-01-21T18:25:35.312Z,101379.14
2019-01-21T18:28:04.961Z,101383.19
2019-01-21T18:30:34.602Z,101380.59
2019-01-21T18:33:04.010Z,101376.27
2019-01-21T18:35:33.668Z,101383.69
2019-01-21T18:38:02.964Z,101382.91
2019-01-21T18:40:32.666Z,101382.81
2019-01-21T18:43:01.970Z,101377.91
2019-01-21T18:45:31.826Z,101372.63
2019-01-21T18:48:01.305Z,101370.59
2019-01-21T18:50:30.622Z,101367.91
2019-01-21T18:52:59.950Z,101364.25
2019-01-21T18:55:29.346Z,101361.69
2019-01-21T18:57:58.754Z,101358.34
2019-01-21T19:00:28.404Z,101356.05
2019-01-21T19:02:57.758Z,101354.65
2019-01-21T19:05:27.074Z,101342.17
2019-01-21T19:07:56.408Z,101344.34
2019-01-21T19:10:25.801Z,101333.75
2019-01-21T19:12:55.141Z,101338.94
2019-01-21T19:15:27.622Z,101337.39
2019-01-21T19:17:57.393Z,101331.98
2019-01-21T19:20:26.766Z,101332.91
2019-01-21T19:22:56.080Z,101336.77
2019-01-21T19:25:25.403Z,101330.04
2019-01-21T19:27:54.718Z,101328.42
2019-01-21T19:30:26.390Z,101326.27
2019-01-21T19:32:55.758Z,101329.11
2019-01-21T19:35:28.191Z,101326.16
2019-01-21T19:37:57.556Z,101318.16
2019-01-21T19:40:26.878Z,101315.33
2019-01-21T19:42:56.223Z,101319.83
2019-01-21T19:45:25.892Z,101315.48
2019-01-21T19:47:55.370Z,101314.18
2019-01-21T19:50:25.211Z,101310.67
2019-01-21T19:52:54.621Z,101314.92
2019-01-21T19:55:27.325Z,101317.91
2019-01-21T19:57:56.647Z,101321.42
2019-01-21T20:00:26.924Z,101314.55
2019-01-21T20:02:56.535Z,101315.41
2019-01-21T20:05:25.952Z,101322.00
2019-01-21T20:07:55.347Z,101312.77
2019-01-21T20:10:25.544Z,101304.56
2019-01-21T20:12:54.914Z,101311.80
2019-01-21T20:15:24.380Z,101308.89
2019-01-21T20:17:53.766Z,101306.55
2019-01-21T20:20:26.141Z,101317.63
2019-01-21T20:22:57.525Z,101316.14
2019-01-21T20:25:27.501Z,101324.48
2019-01-21T20:27:56.846Z,101329.93
2019-01-21T20:30:26.228Z,101320.55
2019-01-21T20:32:55.608Z,101319.27
2019-01-21T20:35:25.101Z,101314.87
2019-01-21T20:37:54.426Z,101311.61
2019-01-21T20:40:28.887Z,101310.34
2019-01-21T20:42:58.300Z,101308.94
2019-01-21T20:45:27.637Z,101310.83
2019-01-21T20:47:57.021Z,101307.78
2019-01-21T20:50:29.598Z,101312.77
2019-01-21T20:52:59.010Z,101312.23
2019-01-21T20:55:28.804Z,101309.09
2019-01-21T20:57:58.129Z,101307.08
2019-01-21T21:00:29.894Z,101306.02
2019-01-21T21:03:03.496Z,101307.24
2019-01-21T21:05:32.906Z,101306.52
2019-01-21T21:08:02.333Z,101303.15
2019-01-21T21:10:31.632Z,101301.91
2019-01-21T21:13:01.484Z,101304.26
2019-01-21T21:15:32.921Z,101298.19
2019-01-21T21:18:02.628Z,101295.56
2019-01-21T21:20:33.403Z,101296.47
2019-01-21T21:23:04.136Z,101295.30
2019-01-21T21:25:34.840Z,101282.08
2019-01-21T21:28:05.346Z,101285.74
2019-01-21T21:30:36.314Z,101282.30
2019-01-21T21:33:06.755Z,101285.13
2019-01-21T21:35:38.244Z,101284.78
2019-01-21T21:38:08.613Z,101275.80
2019-01-21T21:40:38.954Z,101276.42
2019-01-21T21:43:09.199Z,101281.67
2019-01-21T21:45:40.104Z,101276.24
2019-01-21T21:48:10.493Z,101277.31
2019-01-21T21:50:41.051Z,101270.16
2019-01-21T21:53:11.399Z,101272.83
2019-01-21T21:55:42.267Z,101269.74
2019-01-21T21:58:13.068Z,101265.48
2019-01-21T22:00:43.667Z,101260.05
2019-01-21T22:03:14.255Z,101260.28
2019-01-21T22:05:45.055Z,101265.16
2019-01-21T22:08:15.382Z,101252.78
2019-01-21T22:10:45.862Z,101257.84
2019-01-21T22:13:16.523Z,101252.39
2019-01-21T22:15:46.971Z,101257.23
2019-01-21T22:18:17.414Z,101261.66
2019-01-21T22:20:48.349Z,101253.36
2019-01-21T22:23:20.206Z,101250.32
2019-01-21T22:25:50.468Z,101243.05
2019-01-21T22:28:21.246Z,101238.84
2019-01-21T22:30:51.717Z,101234.77
2019-01-21T22:33:22.251Z,101230.82
2019-01-21T22:35:53.440Z,101227.00
2019-01-21T22:38:24.083Z,101225.11
2019-01-21T22:40:54.520Z,101222.45
2019-01-21T22:43:25.146Z,101221.23
2019-01-21T22:45:55.681Z,101222.45
2019-01-21T22:48:26.202Z,101225.90
2019-01-21T22:50:56.730Z,101221.06
2019-01-21T22:53:28.040Z,101218.45
2019-01-21T22:55:58.651Z,101218.57
2019-01-21T22:58:49.884Z,101214.31
2019-01-21T23:01:22.912Z,101216.67
2019-01-21T23:03:52.595Z,101206.24
2019-01-21T23:06:22.960Z,101208.64
2019-01-21T23:08:53.615Z,101203.30
2019-01-21T23:11:24.302Z,101203.14
2019-01-21T23:13:55.260Z,101190.66
2019-01-21T23:16:25.932Z,101193.25
2019-01-21T23:18:56.568Z,101186.36
2019-01-21T23:21:27.488Z,101180.49
2019-01-21T23:23:58.079Z,101181.09
2019-01-21T23:26:29.225Z,101180.80
2019-01-21T23:29:00.396Z,101177.81
2019-01-21T23:31:30.819Z,101178.33
2019-01-21T23:34:01.617Z,101173.05
2019-01-21T23:36:32.244Z,101170.50
2019-01-21T23:39:05.168Z,101176.02
2019-01-21T23:41:36.278Z,101165.51
2019-01-21T23:44:06.889Z,101161.55
2019-01-21T23:46:38.121Z,101160.55
2019-01-21T23:49:09.387Z,101157.36
2019-01-21T23:51:39.706Z,101144.52
2019-01-21T23:54:10.238Z,101142.15
2019-01-21T23:56:40.990Z,101129.72
2019-01-21T23:59:11.605Z,101125.05
